Time;durP1;ratioP1;P1;durP2;ratioP2;P2;SDS_P1;SDS_P2;PMS_P1;PMS_P2;Temp;Humidity;BMP_temperature;BMP_pressure;BME280_temperature;BME280_humidity;BME280_pressure;Samples;Min_cycle;Max_cycle;Signal;HPM_P1;HPM_P2
2021/08/10 00:01:14;;;;;;;6.30;4.63;;;;;;;;;;5031058;28;20221;-68
2021/08/10 00:03:39;;;;;;;8.20;3.50;;;;;;;;;;5031004;28;20670;-68
2021/08/10 00:06:05;;;;;;;5.60;3.97;;;;;;;;;;5030741;28;20174;-68
2021/08/10 00:08:30;;;;;;;7.95;3.92;;;;;;;;;;5030663;28;20174;-68
2021/08/10 00:10:55;;;;;;;5.75;3.70;;;;;;;;;;5030797;28;20202;-69
2021/08/10 00:13:21;;;;;;;6.65;4.28;;;;;;;;;;5031043;28;20187;-69
2021/08/10 00:15:47;;;;;;;6.28;4.55;;;;;;;;;;5030681;28;20217;-69
2021/08/10 00:18:12;;;;;;;8.40;4.47;;;;;;;;;;5030433;28;20206;-69
2021/08/10 00:20:38;;;;;;;7.03;4.70;;;;;;;;;;5031147;28;20185;-69
2021/08/10 00:23:03;;;;;;;6.38;4.30;;;;;;;;;;5034261;28;20248;-68
2021/08/10 00:25:29;;;;;;;6.75;5.03;;;;;;;;;;5034541;28;20207;-68
2021/08/10 00:27:54;;;;;;;8.80;5.05;;;;;;;;;;5034389;28;20496;-69
2021/08/10 00:30:20;;;;;;;6.93;5.00;;;;;;;;;;5034532;28;20182;-69
2021/08/10 00:32:45;;;;;;;8.52;5.70;;;;;;;;;;5034275;28;20196;-68
2021/08/10 00:35:10;;;;;;;10.73;5.72;;;;;;;;;;5034068;28;20267;-68
2021/08/10 00:37:35;;;;;;;7.45;5.65;;;;;;;;;;5034362;28;20174;-67
2021/08/10 00:40:01;;;;;;;8.18;5.97;;;;;;;;;;5033932;28;20221;-69
2021/08/10 00:42:26;;;;;;;9.68;6.25;;;;;;;;;;5034033;28;20564;-68
2021/08/10 00:44:51;;;;;;;12.23;7.10;;;;;;;;;;5033951;28;20289;-69
2021/08/10 00:47:16;;;;;;;21.30;7.25;;;;;;;;;;5033748;28;20175;-69
2021/08/10 00:49:41;;;;;;;9.55;6.40;;;;;;;;;;5033586;28;20182;-69
2021/08/10 00:52:07;;;;;;;12.55;6.63;;;;;;;;;;5033944;28;20186;-68
2021/08/10 00:54:32;;;;;;;9.40;6.78;;;;;;;;;;5033812;28;20324;-68
2021/08/10 00:56:57;;;;;;;13.57;6.82;;;;;;;;;;5033710;28;20620;-68
2021/08/10 00:59:23;;;;;;;11.30;6.65;;;;;;;;;;5033338;28;20203;-68
2021/08/10 01:01:48;;;;;;;7.75;6.10;;;;;;;;;;5033720;28;20596;-67
2021/08/10 01:04:13;;;;;;;9.48;7.07;;;;;;;;;;5033856;28;20202;-69
2021/08/10 01:06:41;;;;;;;11.23;7.50;;;;;;;;;;5033675;28;20648;-69
2021/08/10 01:09:17;;;;;;;12.40;7.18;;;;;;;;;;5033644;28;20190;-67
2021/08/10 01:12:00;;;;;;;7.70;6.72;;;;;;;;;;5033345;28;20186;-67
2021/08/10 01:14:31;;;;;;;8.10;6.95;;;;;;;;;;5029058;28;20285;-67
2021/08/10 01:17:00;;;;;;;10.65;8.02;;;;;;;;;;5033795;28;20189;-69
2021/08/10 01:19:43;;;;;;;8.40;6.85;;;;;;;;;;5029792;28;20641;-69
2021/08/10 01:22:10;;;;;;;10.40;6.70;;;;;;;;;;5033600;28;20182;-68
2021/08/10 01:24:39;;;;;;;8.48;6.43;;;;;;;;;;5032955;28;20213;-69
2021/08/10 01:27:23;;;;;;;8.30;6.93;;;;;;;;;;5015676;28;20177;-68
2021/08/10 01:29:51;;;;;;;10.50;6.30;;;;;;;;;;5028480;28;20569;-69
2021/08/10 01:32:16;;;;;;;8.05;6.30;;;;;;;;;;5033176;28;20186;-67
2021/08/10 01:34:46;;;;;;;11.45;6.95;;;;;;;;;;5033020;28;20559;-67
2021/08/10 01:37:13;;;;;;;9.75;6.70;;;;;;;;;;5033043;28;20179;-67
2021/08/10 01:39:40;;;;;;;10.57;6.45;;;;;;;;;;5033113;28;20694;-70
2021/08/10 01:42:06;;;;;;;8.82;6.22;;;;;;;;;;5032812;28;20182;-69
2021/08/10 01:44:32;;;;;;;9.27;5.85;;;;;;;;;;5033224;28;20203;-67
2021/08/10 01:46:58;;;;;;;7.60;6.80;;;;;;;;;;5032787;28;20181;-70
2021/08/10 01:49:24;;;;;;;9.57;7.00;;;;;;;;;;5030678;28;20182;-67
2021/08/10 01:51:50;;;;;;;7.72;6.55;;;;;;;;;;5032684;28;20228;-66
2021/08/10 01:54:16;;;;;;;8.07;6.53;;;;;;;;;;5032704;28;20202;-67
2021/08/10 01:56:41;;;;;;;9.82;6.78;;;;;;;;;;5032583;28;20546;-68
2021/08/10 01:59:07;;;;;;;8.45;6.50;;;;;;;;;;5014856;28;20202;-67
2021/08/10 02:01:33;;;;;;;8.85;6.20;;;;;;;;;;5032635;28;20674;-69
2021/08/10 02:03:58;;;;;;;8.98;6.60;;;;;;;;;;5032546;28;20253;-68
2021/08/10 02:06:25;;;;;;;9.48;6.88;;;;;;;;;;5032306;28;20257;-68
2021/08/10 02:08:51;;;;;;;9.77;6.68;;;;;;;;;;5032434;28;20591;-67
2021/08/10 02:11:17;;;;;;;11.32;6.93;;;;;;;;;;5032326;28;21764;-68
2021/08/10 02:13:42;;;;;;;8.80;6.45;;;;;;;;;;5046765;22;20282;-67
2021/08/10 02:16:08;;;;;;;7.50;6.03;;;;;;;;;;5070758;28;20275;-68
2021/08/10 02:18:34;;;;;;;11.30;6.70;;;;;;;;;;5072170;28;20212;-69
2021/08/10 02:21:00;;;;;;;8.57;6.05;;;;;;;;;;5071871;28;20212;-69
2021/08/10 02:23:29;;;;;;;7.40;6.60;;;;;;;;;;5072196;28;20173;-66
2021/08/10 02:25:54;;;;;;;13.10;7.38;;;;;;;;;;5071776;28;20192;-69
2021/08/10 02:28:20;;;;;;;9.27;6.78;;;;;;;;;;5072029;28;20664;-66
2021/08/10 02:30:52;;;;;;;9.00;6.43;;;;;;;;;;5071828;28;20618;-67
2021/08/10 02:33:19;;;;;;;8.23;6.25;;;;;;;;;;5071955;28;20188;-69
2021/08/10 02:35:45;;;;;;;8.20;6.13;;;;;;;;;;5071323;28;20220;-67
2021/08/10 02:38:13;;;;;;;8.70;6.15;;;;;;;;;;5071915;28;20285;-66
2021/08/10 02:40:40;;;;;;;9.82;6.20;;;;;;;;;;5071620;28;20268;-69
2021/08/10 02:43:06;;;;;;;7.97;6.18;;;;;;;;;;5071359;28;20172;-67
2021/08/10 02:45:33;;;;;;;8.88;6.53;;;;;;;;;;5071393;28;20193;-67
2021/08/10 02:47:58;;;;;;;8.85;7.25;;;;;;;;;;5071383;28;20199;-66
2021/08/10 02:50:25;;;;;;;12.50;6.25;;;;;;;;;;5071305;28;20646;-67
2021/08/10 02:52:50;;;;;;;7.38;5.93;;;;;;;;;;5071643;28;20189;-66
2021/08/10 02:55:18;;;;;;;13.90;7.28;;;;;;;;;;5071133;28;20212;-67
2021/08/10 02:57:53;;;;;;;10.30;6.20;;;;;;;;;;5071246;28;20181;-66
2021/08/10 03:00:18;;;;;;;8.15;5.72;;;;;;;;;;5052608;28;20222;-66
2021/08/10 03:02:45;;;;;;;11.18;6.55;;;;;;;;;;5071458;28;20584;-66
2021/08/10 03:05:15;;;;;;;9.40;5.40;;;;;;;;;;5071090;28;20211;-66
2021/08/10 03:07:44;;;;;;;8.98;5.63;;;;;;;;;;5071521;28;20650;-67
2021/08/10 03:10:10;;;;;;;10.02;5.97;;;;;;;;;;5070915;28;20204;-66
2021/08/10 03:12:38;;;;;;;10.45;6.18;;;;;;;;;;5071623;28;20181;-66
2021/08/10 03:15:03;;;;;;;9.77;6.18;;;;;;;;;;5071041;28;20236;-66
2021/08/10 03:17:31;;;;;;;14.00;6.25;;;;;;;;;;5071491;28;20199;-67
2021/08/10 03:19:57;;;;;;;10.27;6.32;;;;;;;;;;5070789;28;20201;-66
2021/08/10 03:22:23;;;;;;;10.63;6.65;;;;;;;;;;5066909;28;20191;-66
2021/08/10 03:24:49;;;;;;;9.07;5.93;;;;;;;;;;5053002;28;20197;-67
2021/08/10 03:27:14;;;;;;;8.15;5.88;;;;;;;;;;5071213;28;20176;-67
2021/08/10 03:29:40;;;;;;;7.80;5.93;;;;;;;;;;5070734;28;20250;-67
2021/08/10 03:32:06;;;;;;;10.95;8.30;;;;;;;;;;5071081;28;20264;-67
2021/08/10 03:34:32;;;;;;;8.63;5.65;;;;;;;;;;5070880;28;20279;-67
2021/08/10 03:36:58;;;;;;;7.72;6.45;;;;;;;;;;5071094;28;20243;-66
2021/08/10 03:39:24;;;;;;;9.75;6.80;;;;;;;;;;5070558;28;20258;-66
2021/08/10 03:41:49;;;;;;;8.68;6.20;;;;;;;;;;5071098;28;20252;-67
2021/08/10 03:44:15;;;;;;;9.88;6.70;;;;;;;;;;5070920;28;20291;-69
2021/08/10 03:46:40;;;;;;;8.13;6.07;;;;;;;;;;5071995;28;20180;-67
2021/08/10 03:49:06;;;;;;;6.90;5.60;;;;;;;;;;5071243;28;20187;-67
2021/08/10 03:51:31;;;;;;;8.52;5.90;;;;;;;;;;5070880;28;20619;-67
2021/08/10 03:53:56;;;;;;;8.73;6.32;;;;;;;;;;5070653;28;20295;-69
2021/08/10 03:56:25;;;;;;;9.15;6.65;;;;;;;;;;5072637;28;20255;-68
2021/08/10 03:58:53;;;;;;;8.65;6.13;;;;;;;;;;5074819;28;20215;-66
2021/08/10 04:01:19;;;;;;;10.90;6.63;;;;;;;;;;5074776;28;20267;-66
2021/08/10 04:03:45;;;;;;;10.27;6.95;;;;;;;;;;5075066;28;20173;-67
2021/08/10 04:06:11;;;;;;;11.00;6.43;;;;;;;;;;5074588;28;20654;-68
2021/08/10 04:08:36;;;;;;;9.07;7.20;;;;;;;;;;5074634;28;20177;-67
2021/08/10 04:11:02;;;;;;;10.50;6.45;;;;;;;;;;5074990;28;20260;-69
2021/08/10 04:13:29;;;;;;;7.80;6.38;;;;;;;;;;5074646;28;20184;-68
2021/08/10 04:15:56;;;;;;;12.02;7.70;;;;;;;;;;5074411;28;20298;-68
2021/08/10 04:18:24;;;;;;;12.88;7.10;;;;;;;;;;5074352;28;20224;-66
2021/08/10 04:20:50;;;;;;;10.88;7.15;;;;;;;;;;5073746;28;20169;-69
2021/08/10 04:23:16;;;;;;;10.95;6.38;;;;;;;;;;5074358;28;20184;-69
2021/08/10 04:25:41;;;;;;;11.48;6.38;;;;;;;;;;5074178;28;20204;-69
2021/08/10 04:28:06;;;;;;;10.80;6.90;;;;;;;;;;5074377;28;20181;-68
2021/08/10 04:30:32;;;;;;;9.68;6.22;;;;;;;;;;5074043;28;20177;-68
2021/08/10 04:32:58;;;;;;;12.52;6.65;;;;;;;;;;5074667;28;20638;-69
2021/08/10 04:35:23;;;;;;;9.35;6.68;;;;;;;;;;5073907;28;20197;-69
2021/08/10 04:37:48;;;;;;;8.63;6.13;;;;;;;;;;5074084;28;20177;-68
2021/08/10 04:40:13;;;;;;;13.77;7.60;;;;;;;;;;5073846;28;20180;-69
2021/08/10 04:42:39;;;;;;;10.48;7.05;;;;;;;;;;5074039;28;20173;-68
2021/08/10 04:45:04;;;;;;;13.50;7.30;;;;;;;;;;5073771;28;20674;-69
2021/08/10 04:47:29;;;;;;;12.10;7.18;;;;;;;;;;5073731;28;20692;-69
2021/08/10 04:49:54;;;;;;;9.88;7.20;;;;;;;;;;5055777;28;20616;-69
2021/08/10 04:52:21;;;;;;;9.32;7.18;;;;;;;;;;5073863;28;20208;-68
2021/08/10 04:54:47;;;;;;;15.65;7.50;;;;;;;;;;5073634;28;20291;-69
2021/08/10 04:57:12;;;;;;;10.15;7.43;;;;;;;;;;5073544;28;20690;-68
2021/08/10 04:59:37;;;;;;;11.82;7.15;;;;;;;;;;5073531;28;20205;-68
2021/08/10 05:02:02;;;;;;;13.03;7.57;;;;;;;;;;5073671;28;20177;-68
2021/08/10 05:04:27;;;;;;;9.85;7.38;;;;;;;;;;5055622;28;20430;-68
2021/08/10 05:06:54;;;;;;;10.63;7.43;;;;;;;;;;5073378;28;20173;-68
2021/08/10 05:09:19;;;;;;;9.68;7.10;;;;;;;;;;5073127;28;20173;-68
2021/08/10 05:11:44;;;;;;;14.32;7.30;;;;;;;;;;5073707;28;20192;-68
2021/08/10 05:14:10;;;;;;;11.18;7.07;;;;;;;;;;5073128;28;20215;-68
2021/08/10 05:16:35;;;;;;;12.97;7.57;;;;;;;;;;5073689;28;20187;-69
2021/08/10 05:19:00;;;;;;;13.30;8.30;;;;;;;;;;5055099;28;21003;-68
2021/08/10 05:21:25;;;;;;;10.35;6.82;;;;;;;;;;5073354;28;20410;-68
2021/08/10 05:23:50;;;;;;;11.95;7.80;;;;;;;;;;5073183;28;20193;-68
2021/08/10 05:26:16;;;;;;;11.57;7.20;;;;;;;;;;5073539;28;20571;-69
2021/08/10 05:28:42;;;;;;;9.57;6.30;;;;;;;;;;5072768;28;20264;-69
2021/08/10 05:31:07;;;;;;;11.50;7.00;;;;;;;;;;5073335;28;20252;-68
2021/08/10 05:33:32;;;;;;;9.50;6.50;;;;;;;;;;5055301;28;20181;-69
2021/08/10 05:35:57;;;;;;;10.75;7.70;;;;;;;;;;5072970;28;20181;-69
2021/08/10 05:38:23;;;;;;;8.07;6.45;;;;;;;;;;5072873;28;20219;-68
2021/08/10 05:40:48;;;;;;;9.63;6.22;;;;;;;;;;5072933;28;20185;-69
2021/08/10 05:43:13;;;;;;;10.90;6.38;;;;;;;;;;5072929;28;20185;-69
2021/08/10 05:45:38;;;;;;;8.15;5.65;;;;;;;;;;5072837;28;20238;-69
2021/08/10 05:48:03;;;;;;;11.73;6.78;;;;;;;;;;5071948;28;20180;-68
2021/08/10 05:50:29;;;;;;;12.13;6.88;;;;;;;;;;5072413;28;20666;-68
2021/08/10 05:52:54;;;;;;;9.48;5.63;;;;;;;;;;5073044;28;20530;-69
2021/08/10 05:55:19;;;;;;;11.30;5.88;;;;;;;;;;5072328;28;20197;-69
2021/08/10 05:57:44;;;;;;;11.70;6.25;;;;;;;;;;5072360;28;20184;-69
2021/08/10 06:00:10;;;;;;;10.63;5.60;;;;;;;;;;5072149;28;20185;-68
2021/08/10 06:02:35;;;;;;;11.90;5.47;;;;;;;;;;5072789;28;20314;-68
2021/08/10 06:05:00;;;;;;;8.65;6.10;;;;;;;;;;5072132;28;20670;-69
2021/08/10 06:07:25;;;;;;;6.72;4.88;;;;;;;;;;5072759;28;20192;-68
2021/08/10 06:09:51;;;;;;;8.90;5.67;;;;;;;;;;5054019;28;20169;-68
2021/08/10 06:12:16;;;;;;;10.77;5.83;;;;;;;;;;5072548;28;20418;-69
2021/08/10 06:14:41;;;;;;;9.60;5.55;;;;;;;;;;5071932;28;20444;-68
2021/08/10 06:17:06;;;;;;;7.50;4.90;;;;;;;;;;5072380;28;20177;-69
2021/08/10 06:19:31;;;;;;;11.50;6.00;;;;;;;;;;5071046;28;20449;-69
2021/08/10 06:21:57;;;;;;;11.45;6.15;;;;;;;;;;5072425;28;20251;-69
2021/08/10 06:24:23;;;;;;;9.85;5.85;;;;;;;;;;5071845;28;20191;-69
2021/08/10 06:26:48;;;;;;;8.27;5.78;;;;;;;;;;5072574;28;20173;-68
2021/08/10 06:29:13;;;;;;;9.87;5.13;;;;;;;;;;5071547;28;20177;-68
2021/08/10 06:31:38;;;;;;;12.10;5.82;;;;;;;;;;5072246;28;20846;-69
2021/08/10 06:34:03;;;;;;;9.03;5.20;;;;;;;;;;5071569;28;20261;-69
2021/08/10 06:36:28;;;;;;;8.73;5.00;;;;;;;;;;5072102;28;20406;-69
2021/08/10 06:38:54;;;;;;;6.75;4.60;;;;;;;;;;5071405;28;20544;-69
2021/08/10 06:41:19;;;;;;;9.73;5.35;;;;;;;;;;5071988;28;20264;-69
2021/08/10 06:43:44;;;;;;;10.43;5.33;;;;;;;;;;5071383;28;20177;-69
2021/08/10 06:46:09;;;;;;;7.30;6.03;;;;;;;;;;5071656;28;20421;-68
2021/08/10 06:48:34;;;;;;;8.57;4.73;;;;;;;;;;5068873;28;20413;-66
2021/08/10 06:51:01;;;;;;;8.90;5.25;;;;;;;;;;5071755;28;20410;-68
2021/08/10 06:53:26;;;;;;;7.32;5.35;;;;;;;;;;5071439;28;20270;-68
2021/08/10 06:55:52;;;;;;;8.57;5.53;;;;;;;;;;5071446;28;20697;-66
2021/08/10 06:58:17;;;;;;;8.43;4.70;;;;;;;;;;5070804;28;20298;-69
2021/08/10 07:00:42;;;;;;;7.50;4.97;;;;;;;;;;5071081;28;20599;-68
2021/08/10 07:03:07;;;;;;;9.95;5.65;;;;;;;;;;5071526;28;20404;-69
2021/08/10 07:05:33;;;;;;;12.90;5.47;;;;;;;;;;5071325;28;20275;-68
2021/08/10 07:07:58;;;;;;;6.63;5.05;;;;;;;;;;5071360;28;20603;-68
2021/08/10 07:10:23;;;;;;;9.47;5.40;;;;;;;;;;5071685;28;20197;-69
2021/08/10 07:12:49;;;;;;;9.43;4.87;;;;;;;;;;5072378;28;20898;-68
2021/08/10 07:15:14;;;;;;;7.85;5.07;;;;;;;;;;5071479;28;20452;-66
2021/08/10 07:17:39;;;;;;;9.77;4.90;;;;;;;;;;5071299;28;20168;-66
2021/08/10 07:20:05;;;;;;;7.83;4.60;;;;;;;;;;5070843;28;20205;-66
2021/08/10 07:22:30;;;;;;;8.73;4.75;;;;;;;;;;5071152;28;20931;-68
2021/08/10 07:24:55;;;;;;;8.40;4.40;;;;;;;;;;5071092;28;20192;-69
2021/08/10 07:27:20;;;;;;;8.25;4.40;;;;;;;;;;5071161;28;20792;-68
2021/08/10 07:29:45;;;;;;;6.57;4.43;;;;;;;;;;5052881;28;20177;-68
2021/08/10 07:32:11;;;;;;;6.97;3.88;;;;;;;;;;5070909;28;20405;-69
2021/08/10 07:34:36;;;;;;;9.35;4.80;;;;;;;;;;5071079;28;20218;-68
2021/08/10 07:37:01;;;;;;;9.05;4.35;;;;;;;;;;5071232;28;20188;-68
2021/08/10 07:39:26;;;;;;;8.60;3.72;;;;;;;;;;5070676;28;20200;-69
2021/08/10 07:41:52;;;;;;;8.43;4.07;;;;;;;;;;5052972;28;20650;-68
2021/08/10 07:44:17;;;;;;;8.00;4.10;;;;;;;;;;5070886;28;20251;-68
2021/08/10 07:46:42;;;;;;;7.57;4.00;;;;;;;;;;5070867;28;20828;-66
2021/08/10 07:49:07;;;;;;;7.28;3.95;;;;;;;;;;5068258;28;20413;-66
2021/08/10 07:51:32;;;;;;;13.83;3.97;;;;;;;;;;5071151;28;20227;-66
2021/08/10 07:53:57;;;;;;;5.83;4.20;;;;;;;;;;5070503;28;20465;-66
2021/08/10 07:56:23;;;;;;;9.70;5.23;;;;;;;;;;5070752;28;20398;-66
2021/08/10 07:58:48;;;;;;;8.07;4.00;;;;;;;;;;5070481;28;20848;-66
2021/08/10 08:01:13;;;;;;;8.30;3.57;;;;;;;;;;5070676;28;20188;-69
2021/08/10 08:03:38;;;;;;;4.87;3.20;;;;;;;;;;5070704;28;20447;-68
2021/08/10 08:06:04;;;;;;;8.07;3.00;;;;;;;;;;5070738;28;20416;-68
2021/08/10 08:08:30;;;;;;;6.47;2.83;;;;;;;;;;5070530;28;20437;-70
2021/08/10 08:10:56;;;;;;;6.80;3.00;;;;;;;;;;5070844;28;20192;-69
2021/08/10 08:13:21;;;;;;;5.10;2.83;;;;;;;;;;5070632;28;20177;-69
2021/08/10 08:15:48;;;;;;;5.03;3.28;;;;;;;;;;5083629;22;20599;-68
2021/08/10 08:18:13;;;;;;;6.90;2.80;;;;;;;;;;5070543;28;20280;-71
2021/08/10 08:20:38;;;;;;;5.83;2.67;;;;;;;;;;5070650;28;20408;-69
2021/08/10 08:23:03;;;;;;;5.67;2.10;;;;;;;;;;5070570;28;20895;-69
2021/08/10 08:25:29;;;;;;;6.20;2.60;;;;;;;;;;5070643;28;20417;-69
2021/08/10 08:27:54;;;;;;;6.17;2.80;;;;;;;;;;5070429;28;20180;-70
2021/08/10 08:30:19;;;;;;;4.03;2.55;;;;;;;;;;5070480;28;20409;-68
2021/08/10 08:32:44;;;;;;;3.75;2.67;;;;;;;;;;5068573;28;20181;-69
2021/08/10 08:35:10;;;;;;;4.97;2.45;;;;;;;;;;5070587;28;20666;-68
2021/08/10 08:37:35;;;;;;;5.97;3.00;;;;;;;;;;5070594;28;20184;-69
2021/08/10 08:40:01;;;;;;;4.57;2.38;;;;;;;;;;5070332;28;20204;-70
2021/08/10 08:42:26;;;;;;;4.40;2.78;;;;;;;;;;5072517;28;20248;-68
2021/08/10 08:44:51;;;;;;;4.23;2.30;;;;;;;;;;5074184;28;20197;-68
2021/08/10 08:47:19;;;;;;;6.20;2.50;;;;;;;;;;5072892;28;20793;-68
2021/08/10 08:49:45;;;;;;;4.90;2.35;;;;;;;;;;5072091;28;20479;-68
2021/08/10 08:52:12;;;;;;;4.22;2.60;;;;;;;;;;5073828;28;20268;-69
2021/08/10 08:54:38;;;;;;;4.15;2.80;;;;;;;;;;5073706;28;20674;-70
2021/08/10 08:57:03;;;;;;;4.00;2.35;;;;;;;;;;5073743;28;20183;-69
2021/08/10 08:59:29;;;;;;;4.97;2.72;;;;;;;;;;5073619;28;20208;-69
2021/08/10 09:01:54;;;;;;;6.55;4.50;;;;;;;;;;5073706;28;20176;-68
2021/08/10 09:04:20;;;;;;;3.90;2.50;;;;;;;;;;5073493;28;20197;-69
2021/08/10 09:06:45;;;;;;;3.80;2.08;;;;;;;;;;5073644;28;20176;-68
2021/08/10 09:09:21;;;;;;;3.03;2.38;;;;;;;;;;5073378;28;20181;-70
2021/08/10 09:11:50;;;;;;;3.75;2.05;;;;;;;;;;5073817;28;20573;-68
2021/08/10 09:14:15;;;;;;;2.17;1.70;;;;;;;;;;5073742;28;20243;-68
2021/08/10 09:16:59;;;;;;;3.42;2.10;;;;;;;;;;5073526;28;20639;-69
2021/08/10 09:19:43;;;;;;;4.18;2.13;;;;;;;;;;5071683;28;20224;-69
2021/08/10 09:22:12;;;;;;;4.90;2.90;;;;;;;;;;5073436;28;20169;-68
2021/08/10 09:24:45;;;;;;;3.65;1.80;;;;;;;;;;5073480;28;20201;-69
2021/08/10 09:27:27;;;;;;;3.42;2.15;;;;;;;;;;5071891;28;20199;-68
2021/08/10 09:29:53;;;;;;;3.42;2.33;;;;;;;;;;5073397;28;20605;-69
2021/08/10 09:32:18;;;;;;;3.83;2.15;;;;;;;;;;5073790;28;20177;-70
2021/08/10 09:34:43;;;;;;;6.50;2.55;;;;;;;;;;5074648;28;20633;-69
2021/08/10 09:37:15;;;;;;;6.65;2.50;;;;;;;;;;5073336;28;20657;-69
2021/08/10 09:39:40;;;;;;;3.88;3.17;;;;;;;;;;5073605;28;20203;-70
2021/08/10 09:42:10;;;;;;;4.03;2.58;;;;;;;;;;5074567;28;20588;-71
2021/08/10 09:44:36;;;;;;;5.63;2.40;;;;;;;;;;5074461;28;20229;-69
2021/08/10 09:47:02;;;;;;;6.88;3.30;;;;;;;;;;5073886;28;20196;-71
2021/08/10 09:49:41;;;;;;;2.92;2.42;;;;;;;;;;5072720;28;20169;-69
2021/08/10 09:52:06;;;;;;;4.85;2.33;;;;;;;;;;5071688;28;20216;-69
2021/08/10 09:54:31;;;;;;;5.83;3.20;;;;;;;;;;5072255;28;20231;-69
2021/08/10 09:56:59;;;;;;;3.90;2.58;;;;;;;;;;5072932;28;20414;-69
2021/08/10 09:59:38;;;;;;;4.85;2.42;;;;;;;;;;5072050;28;20193;-69
2021/08/10 10:02:14;;;;;;;5.07;2.75;;;;;;;;;;5070295;28;20728;-69
2021/08/10 10:04:47;;;;;;;6.00;3.15;;;;;;;;;;5069012;28;20200;-69
2021/08/10 10:07:12;;;;;;;6.93;3.30;;;;;;;;;;5072373;28;20176;-69
2021/08/10 10:09:38;;;;;;;5.77;2.93;;;;;;;;;;5072400;28;20327;-68
2021/08/10 10:12:04;;;;;;;4.88;2.58;;;;;;;;;;5072356;28;20410;-70
2021/08/10 10:14:30;;;;;;;6.13;3.30;;;;;;;;;;5072359;28;20205;-69
2021/08/10 10:16:57;;;;;;;5.43;3.28;;;;;;;;;;5072153;28;20204;-69
2021/08/10 10:19:22;;;;;;;6.45;3.13;;;;;;;;;;5069872;28;20209;-69
2021/08/10 10:21:51;;;;;;;4.60;2.95;;;;;;;;;;5054180;28;20199;-68
2021/08/10 10:24:19;;;;;;;6.47;3.00;;;;;;;;;;5072074;28;20630;-68
2021/08/10 10:26:45;;;;;;;8.55;3.50;;;;;;;;;;5072027;28;20252;-68
2021/08/10 10:29:12;;;;;;;4.82;2.72;;;;;;;;;;5071925;28;20176;-68
2021/08/10 10:31:38;;;;;;;5.18;3.55;;;;;;;;;;5071866;28;20185;-68
2021/08/10 10:34:04;;;;;;;7.68;3.95;;;;;;;;;;5072037;28;20267;-68
2021/08/10 10:36:30;;;;;;;7.05;3.83;;;;;;;;;;5071331;28;20169;-70
2021/08/10 10:38:57;;;;;;;7.57;3.15;;;;;;;;;;5071743;28;20215;-68
2021/08/10 10:41:23;;;;;;;6.38;3.10;;;;;;;;;;5071971;28;20177;-69
2021/08/10 10:43:52;;;;;;;5.32;2.90;;;;;;;;;;5072007;28;20181;-68
2021/08/10 10:46:31;;;;;;;6.32;3.53;;;;;;;;;;5071460;28;20205;-69
2021/08/10 10:48:57;;;;;;;7.25;3.78;;;;;;;;;;5068980;28;20218;-70
2021/08/10 10:51:24;;;;;;;6.47;3.08;;;;;;;;;;5071211;28;20617;-69
2021/08/10 10:53:49;;;;;;;7.90;3.70;;;;;;;;;;5053695;28;20572;-68
2021/08/10 10:56:24;;;;;;;6.72;3.35;;;;;;;;;;5071053;28;20173;-67
2021/08/10 10:58:49;;;;;;;6.13;3.17;;;;;;;;;;5071199;28;20264;-68
2021/08/10 11:01:15;;;;;;;6.50;3.05;;;;;;;;;;5071439;28;20268;-69
2021/08/10 11:04:01;;;;;;;5.70;3.55;;;;;;;;;;5071571;28;20173;-68
2021/08/10 11:06:30;;;;;;;6.22;3.70;;;;;;;;;;5069075;28;20234;-68
2021/08/10 11:08:56;;;;;;;6.43;3.88;;;;;;;;;;5071167;28;20177;-69
2021/08/10 11:11:39;;;;;;;5.85;3.38;;;;;;;;;;5071275;28;20693;-68
2021/08/10 11:14:05;;;;;;;5.35;3.20;;;;;;;;;;5053217;28;20187;-68
2021/08/10 11:16:50;;;;;;;6.63;3.88;;;;;;;;;;5071264;28;20184;-68
2021/08/10 11:19:31;;;;;;;6.85;3.72;;;;;;;;;;5070493;28;20200;-68
2021/08/10 11:22:17;;;;;;;8.80;3.78;;;;;;;;;;5071232;28;20184;-68
2021/08/10 11:24:52;;;;;;;5.93;3.33;;;;;;;;;;5070003;28;20211;-69
2021/08/10 11:27:30;;;;;;;6.97;3.05;;;;;;;;;;5071116;28;20180;-69
2021/08/10 11:29:55;;;;;;;6.63;3.30;;;;;;;;;;5069133;28;20799;-67
2021/08/10 11:32:33;;;;;;;9.00;3.50;;;;;;;;;;5070910;28;20252;-71
2021/08/10 11:35:18;;;;;;;7.57;3.35;;;;;;;;;;5071093;28;20204;-68
2021/08/10 11:37:43;;;;;;;5.65;2.83;;;;;;;;;;5069674;28;20559;-69
2021/08/10 11:40:11;;;;;;;9.13;3.30;;;;;;;;;;5070704;28;20197;-67
2021/08/10 11:42:37;;;;;;;4.28;2.75;;;;;;;;;;5070969;28;20634;-68
2021/08/10 11:45:03;;;;;;;5.85;3.08;;;;;;;;;;5071072;28;20192;-69
2021/08/10 11:47:29;;;;;;;5.25;2.88;;;;;;;;;;5070253;28;20169;-70
2021/08/10 11:49:54;;;;;;;3.95;2.78;;;;;;;;;;5068258;28;20177;-68
2021/08/10 11:52:19;;;;;;;4.38;2.78;;;;;;;;;;5070600;28;20173;-68
2021/08/10 11:54:57;;;;;;;5.03;2.37;;;;;;;;;;5070855;28;20713;-68
2021/08/10 11:57:25;;;;;;;4.90;2.55;;;;;;;;;;5069845;28;20413;-69
2021/08/10 12:00:09;;;;;;;4.50;2.90;;;;;;;;;;5070520;28;20208;-68
2021/08/10 12:02:40;;;;;;;4.57;2.72;;;;;;;;;;5069611;28;20172;-70
2021/08/10 12:05:06;;;;;;;5.78;2.90;;;;;;;;;;5070613;28;20674;-69
2021/08/10 12:07:31;;;;;;;5.53;3.45;;;;;;;;;;5070893;28;20247;-69
2021/08/10 12:10:01;;;;;;;5.15;3.20;;;;;;;;;;5070490;28;20227;-68
2021/08/10 12:12:33;;;;;;;4.53;2.90;;;;;;;;;;5063371;28;20179;-69
2021/08/10 12:14:58;;;;;;;5.90;3.00;;;;;;;;;;5069638;28;20596;-69
2021/08/10 12:17:23;;;;;;;5.87;2.70;;;;;;;;;;5054741;28;20165;-69
2021/08/10 12:19:49;;;;;;;6.00;3.00;;;;;;;;;;5074036;28;20453;-69
2021/08/10 12:22:29;;;;;;;5.88;2.60;;;;;;;;;;5074381;28;20177;-70
2021/08/10 12:24:55;;;;;;;5.50;2.92;;;;;;;;;;5074280;28;20188;-69
2021/08/10 12:27:26;;;;;;;5.57;2.30;;;;;;;;;;5074435;28;20169;-68
2021/08/10 12:29:51;;;;;;;4.93;2.75;;;;;;;;;;5056345;28;20268;-68
2021/08/10 12:32:23;;;;;;;4.97;2.73;;;;;;;;;;5074185;28;20260;-69
2021/08/10 12:34:48;;;;;;;4.10;2.72;;;;;;;;;;5074229;28;20492;-69
2021/08/10 12:37:13;;;;;;;7.00;3.50;;;;;;;;;;5056415;28;20213;-68
2021/08/10 12:39:43;;;;;;;6.32;2.67;;;;;;;;;;5074117;28;20204;-68
2021/08/10 12:42:08;;;;;;;5.95;4.10;;;;;;;;;;5056471;28;20268;-68
2021/08/10 12:44:34;;;;;;;4.85;2.75;;;;;;;;;;5074761;28;20635;-69
2021/08/10 12:47:06;;;;;;;4.55;2.50;;;;;;;;;;5055449;28;20184;-69
2021/08/10 12:49:41;;;;;;;3.35;2.58;;;;;;;;;;5070406;28;20559;-70
2021/08/10 12:52:13;;;;;;;5.68;2.65;;;;;;;;;;5055937;28;20223;-69
2021/08/10 12:54:58;;;;;;;5.25;2.67;;;;;;;;;;5074142;28;20212;-69
2021/08/10 12:57:24;;;;;;;5.25;2.80;;;;;;;;;;5070113;28;20571;-69
2021/08/10 12:59:53;;;;;;;5.82;2.95;;;;;;;;;;5073418;28;20197;-69
2021/08/10 13:02:30;;;;;;;6.38;2.90;;;;;;;;;;5073466;28;20211;-68
2021/08/10 13:04:56;;;;;;;4.10;2.67;;;;;;;;;;5073781;28;20192;-70
2021/08/10 13:07:21;;;;;;;4.43;2.40;;;;;;;;;;5073875;28;20538;-69
2021/08/10 13:09:47;;;;;;;4.38;2.50;;;;;;;;;;5073362;28;20184;-69
2021/08/10 13:12:13;;;;;;;3.95;2.65;;;;;;;;;;5073479;28;20711;-69
2021/08/10 13:14:58;;;;;;;3.95;2.60;;;;;;;;;;5073214;28;20208;-69
2021/08/10 13:17:34;;;;;;;9.43;2.90;;;;;;;;;;5054523;28;20185;-68
2021/08/10 13:20:04;;;;;;;5.43;2.42;;;;;;;;;;5070235;28;20204;-69
2021/08/10 13:22:39;;;;;;;4.68;3.08;;;;;;;;;;5073394;28;20177;-72
2021/08/10 13:25:05;;;;;;;3.65;2.50;;;;;;;;;;5073136;28;20197;-69
2021/08/10 13:27:31;;;;;;;3.05;2.70;;;;;;;;;;5073102;28;20165;-70
2021/08/10 13:29:56;;;;;;;4.00;2.75;;;;;;;;;;5072911;28;20179;-70
2021/08/10 13:32:21;;;;;;;5.77;2.90;;;;;;;;;;5073165;28;20185;-69
2021/08/10 13:34:46;;;;;;;4.50;2.60;;;;;;;;;;5073538;28;20223;-69
2021/08/10 13:37:12;;;;;;;4.33;2.67;;;;;;;;;;5072797;28;20188;-69
2021/08/10 13:39:40;;;;;;;6.17;2.83;;;;;;;;;;5072663;28;20450;-69
2021/08/10 13:42:05;;;;;;;4.22;2.80;;;;;;;;;;5073018;28;20618;-70
2021/08/10 13:44:30;;;;;;;3.17;2.20;;;;;;;;;;5073068;28;20227;-69
2021/08/10 13:46:55;;;;;;;4.13;2.70;;;;;;;;;;5072680;28;20184;-69
2021/08/10 13:49:20;;;;;;;5.25;2.88;;;;;;;;;;5069576;28;20189;-69
2021/08/10 13:51:47;;;;;;;4.20;2.30;;;;;;;;;;5055119;28;20623;-69
2021/08/10 13:54:12;;;;;;;4.22;2.92;;;;;;;;;;5072494;28;20243;-70
2021/08/10 13:56:37;;;;;;;4.17;2.67;;;;;;;;;;5072771;28;20181;-69
2021/08/10 13:59:03;;;;;;;3.75;2.70;;;;;;;;;;5072036;28;20208;-71
2021/08/10 14:01:46;;;;;;;4.55;2.42;;;;;;;;;;5072625;28;20206;-69
2021/08/10 14:04:11;;;;;;;3.53;2.63;;;;;;;;;;5072721;28;20280;-69
2021/08/10 14:06:36;;;;;;;6.35;2.92;;;;;;;;;;5072563;28;20211;-70
2021/08/10 14:09:02;;;;;;;6.88;3.08;;;;;;;;;;5072192;28;20177;-69
2021/08/10 14:11:27;;;;;;;6.40;2.60;;;;;;;;;;5072513;28;20643;-69
2021/08/10 14:13:52;;;;;;;5.93;3.20;;;;;;;;;;5072262;28;20177;-69
2021/08/10 14:16:20;;;;;;;5.03;2.55;;;;;;;;;;5059473;22;20221;-68
2021/08/10 14:18:45;;;;;;;5.20;2.90;;;;;;;;;;5040963;28;20194;-68
2021/08/10 14:21:10;;;;;;;4.33;2.60;;;;;;;;;;5018249;28;20185;-68
2021/08/10 14:23:36;;;;;;;5.33;2.93;;;;;;;;;;5040490;28;20577;-67
2021/08/10 14:26:01;;;;;;;4.00;3.03;;;;;;;;;;5043583;28;20193;-67
2021/08/10 14:28:27;;;;;;;5.22;3.22;;;;;;;;;;5036487;28;20446;-68
2021/08/10 14:30:52;;;;;;;4.32;3.42;;;;;;;;;;5042494;28;20173;-68
2021/08/10 14:33:17;;;;;;;4.07;2.63;;;;;;;;;;5039559;28;20598;-68
2021/08/10 14:35:42;;;;;;;4.00;2.43;;;;;;;;;;5036412;28;20456;-68
2021/08/10 14:38:07;;;;;;;4.97;2.60;;;;;;;;;;5039697;28;20198;-70
2021/08/10 14:40:33;;;;;;;5.30;2.90;;;;;;;;;;5045316;28;20178;-69